Boulder, Colorado
Current Conditions -  °F | °C
As of 3:57 PM on Monday 24 Nov 2014 (Local Time) from KBDU Reporting Station
Scattered Clouds Scattered Clouds  
Wind Chill: 29°   Ceiling: Unl
Heat Index: 37°   Visibility: 10mi
Dew Point: 10°   Wind: 15mph
Humidity: 33%   Direction: 10°N
Pressure: 30.09"   Gusts: 18mph
Location:  40.02°N, 105.27°W
Report Text: KBDU 242257Z AUTO 01013G16KT 10SM SCT110 03/M12 A3009 RMK AO2
Loading
Personal Weather Stations






























Interactive Weather Map New forecast layout! Learn more

10-Day Weather Forecast

Advertisements
Track Severe Weather on mobile